createdAt,value
2023-07-07T00:00:19.704Z,20.20
2023-07-07T00:02:46.488Z,20.35
2023-07-07T00:05:13.290Z,20.27
2023-07-07T00:07:40.051Z,20.45
2023-07-07T00:10:07.728Z,20.53
2023-07-07T00:12:34.386Z,20.33
2023-07-07T00:15:01.057Z,20.15
2023-07-07T00:17:27.837Z,20.25
2023-07-07T00:19:54.483Z,20.29
2023-07-07T00:22:21.178Z,20.22
2023-07-07T00:24:47.880Z,20.35
2023-07-07T00:27:15.388Z,20.27
2023-07-07T00:29:42.084Z,20.41
2023-07-07T00:32:09.034Z,20.41
2023-07-07T00:34:35.778Z,20.49
2023-07-07T00:37:02.489Z,20.41
2023-07-07T00:39:29.118Z,20.45
2023-07-07T00:41:55.816Z,20.55
2023-07-07T00:44:28.556Z,20.57
2023-07-07T00:46:55.965Z,20.49
2023-07-07T00:49:24.974Z,20.46
2023-07-07T00:52:02.894Z,20.31
2023-07-07T00:54:33.260Z,20.30
2023-07-07T00:57:01.963Z,20.29
2023-07-07T00:59:42.540Z,20.14
2023-07-07T01:02:16.075Z,20.23
2023-07-07T01:04:49.878Z,20.26
2023-07-07T01:07:23.651Z,20.23
2023-07-07T01:09:50.340Z,20.06
2023-07-07T01:12:17.145Z,19.97
2023-07-07T01:14:44.885Z,19.83
2023-07-07T01:17:30.609Z,19.74
2023-07-07T01:20:25.638Z,19.79
2023-07-07T01:23:24.752Z,19.73
2023-07-07T01:26:15.854Z,19.78
2023-07-07T01:29:19.728Z,19.88
2023-07-07T01:31:54.114Z,19.88
2023-07-07T01:34:21.974Z,19.89
2023-07-07T01:36:48.673Z,19.90
2023-07-07T01:39:15.382Z,19.69
2023-07-07T01:41:57.119Z,19.72
2023-07-07T01:44:39.204Z,19.83
2023-07-07T01:47:20.221Z,19.89
2023-07-07T01:49:55.257Z,19.87
2023-07-07T01:52:43.812Z,19.65
2023-07-07T01:55:20.251Z,19.60
2023-07-07T01:57:51.088Z,19.61
2023-07-07T02:00:18.886Z,19.60
2023-07-07T02:02:45.686Z,19.40
2023-07-07T02:05:13.978Z,19.42
2023-07-07T02:07:41.010Z,19.61
2023-07-07T02:10:07.959Z,19.61
2023-07-07T02:12:34.584Z,19.50
2023-07-07T02:15:01.417Z,19.38
2023-07-07T02:17:30.269Z,19.34
2023-07-07T02:19:58.101Z,19.35
2023-07-07T02:22:25.181Z,19.20
2023-07-07T02:24:51.921Z,19.16
2023-07-07T02:27:19.335Z,19.15
2023-07-07T02:29:46.002Z,19.02
2023-07-07T02:32:12.677Z,19.19
2023-07-07T02:34:41.715Z,19.19
2023-07-07T02:37:14.296Z,19.02
2023-07-07T02:39:42.161Z,18.85
2023-07-07T02:42:08.826Z,18.98
2023-07-07T02:44:35.609Z,19.02
2023-07-07T02:47:02.283Z,19.08
2023-07-07T02:49:29.037Z,19.04
2023-07-07T02:51:55.801Z,18.87
2023-07-07T02:54:22.467Z,18.79
2023-07-07T02:56:49.181Z,18.86
2023-07-07T02:59:15.886Z,18.90
2023-07-07T03:01:45.604Z,18.93
2023-07-07T03:04:12.721Z,18.95
2023-07-07T03:06:40.173Z,18.87
2023-07-07T03:09:07.881Z,18.83
2023-07-07T03:11:35.033Z,18.82
2023-07-07T03:14:02.157Z,18.73
2023-07-07T03:16:34.368Z,18.86
2023-07-07T03:19:08.770Z,18.85
2023-07-07T03:21:35.756Z,18.74
2023-07-07T03:24:02.443Z,18.71
2023-07-07T03:26:29.530Z,18.75
2023-07-07T03:28:56.681Z,18.81
2023-07-07T03:31:28.852Z,18.84
2023-07-07T03:33:59.043Z,18.86
2023-07-07T03:36:28.520Z,18.88
2023-07-07T03:38:56.893Z,18.86
2023-07-07T03:41:26.584Z,18.83
2023-07-07T03:43:54.564Z,18.86
2023-07-07T03:46:23.895Z,18.82
2023-07-07T03:48:52.146Z,18.83
2023-07-07T03:51:19.621Z,18.90
2023-07-07T03:53:46.474Z,18.94
2023-07-07T03:56:14.944Z,18.89
2023-07-07T03:58:41.709Z,18.88
2023-07-07T04:01:10.965Z,19.02
2023-07-07T04:03:38.260Z,19.01
2023-07-07T04:06:05.093Z,19.12
2023-07-07T04:08:31.897Z,19.21
2023-07-07T04:11:17.660Z,19.32
2023-07-07T04:13:49.128Z,19.46
2023-07-07T04:16:19.665Z,19.44
2023-07-07T04:18:46.960Z,19.48
2023-07-07T04:21:22.544Z,19.61
2023-07-07T04:23:52.192Z,19.60
2023-07-07T04:26:19.229Z,19.65
2023-07-07T04:28:46.185Z,19.59
2023-07-07T04:31:14.471Z,19.73
2023-07-07T04:33:42.020Z,19.98
2023-07-07T04:36:11.424Z,20.05
2023-07-07T04:38:38.258Z,20.16
2023-07-07T04:41:09.327Z,20.21
2023-07-07T04:43:37.428Z,20.41
2023-07-07T04:46:05.440Z,20.55
2023-07-07T04:48:33.136Z,20.39
2023-07-07T04:51:01.949Z,20.65
2023-07-07T04:53:31.047Z,20.85
2023-07-07T04:55:59.714Z,20.89
2023-07-07T04:58:27.775Z,20.98
2023-07-07T05:01:05.729Z,21.08
2023-07-07T05:03:32.563Z,20.92
2023-07-07T05:05:59.427Z,20.90
2023-07-07T05:08:26.135Z,20.97
2023-07-07T05:10:52.904Z,21.01
2023-07-07T05:13:19.662Z,21.29
2023-07-07T05:15:46.362Z,21.44
2023-07-07T05:18:13.164Z,21.39
2023-07-07T05:20:39.872Z,21.42
2023-07-07T05:23:06.600Z,21.42
2023-07-07T05:25:33.377Z,21.38
2023-07-07T05:28:00.153Z,21.73
2023-07-07T05:30:27.339Z,21.83
2023-07-07T05:32:54.011Z,21.80
2023-07-07T05:35:20.662Z,21.78
2023-07-07T05:37:47.471Z,21.93
2023-07-07T05:40:15.317Z,21.94
2023-07-07T05:42:42.087Z,22.07
2023-07-07T05:45:09.413Z,22.12
2023-07-07T05:47:36.082Z,22.28
2023-07-07T05:50:02.841Z,22.32
2023-07-07T05:52:29.614Z,22.33
2023-07-07T05:54:57.764Z,22.36
2023-07-07T05:57:24.702Z,22.22
2023-07-07T05:59:51.337Z,22.30
2023-07-07T06:02:17.984Z,22.70
2023-07-07T06:04:44.838Z,22.83
2023-07-07T06:07:11.562Z,22.85
2023-07-07T06:09:38.291Z,22.77
2023-07-07T06:12:06.753Z,22.78
2023-07-07T06:14:33.441Z,22.71
2023-07-07T06:17:00.096Z,22.72
2023-07-07T06:19:26.779Z,22.74
2023-07-07T06:21:53.446Z,22.79
2023-07-07T06:24:20.143Z,22.75
2023-07-07T06:26:46.858Z,22.63
2023-07-07T06:29:13.545Z,23.03
2023-07-07T06:31:40.229Z,23.33
2023-07-07T06:34:07.037Z,23.45
2023-07-07T06:36:33.702Z,23.52
2023-07-07T06:39:00.416Z,23.51
2023-07-07T06:41:27.240Z,23.48
2023-07-07T06:43:54.402Z,23.62
2023-07-07T06:46:24.207Z,23.67
2023-07-07T06:48:51.050Z,23.91
2023-07-07T06:51:19.881Z,23.83
2023-07-07T06:53:46.652Z,23.70
2023-07-07T06:56:13.448Z,23.89
2023-07-07T06:58:40.180Z,23.93
2023-07-07T07:01:06.953Z,23.95
2023-07-07T07:03:33.645Z,24.05
2023-07-07T07:06:01.007Z,23.83
2023-07-07T07:08:27.742Z,23.80
2023-07-07T07:10:54.493Z,24.17
2023-07-07T07:13:21.239Z,24.06
2023-07-07T07:15:48.245Z,24.19
2023-07-07T07:18:15.158Z,24.67
2023-07-07T07:20:41.990Z,24.81
2023-07-07T07:23:08.678Z,24.72
2023-07-07T07:25:35.483Z,24.87
2023-07-07T07:28:02.152Z,25.04
2023-07-07T07:30:28.934Z,24.55
2023-07-07T07:32:55.742Z,25.00
2023-07-07T07:35:22.461Z,24.78
2023-07-07T07:37:49.188Z,24.95
2023-07-07T07:40:16.018Z,24.96
2023-07-07T07:42:42.807Z,24.73
2023-07-07T07:45:17.034Z,25.02
2023-07-07T07:47:43.831Z,25.16
2023-07-07T07:50:11.119Z,25.41
2023-07-07T07:52:37.750Z,25.29
2023-07-07T07:55:04.741Z,25.82
2023-07-07T07:57:31.456Z,26.09
2023-07-07T07:59:58.130Z,25.74
2023-07-07T08:02:24.901Z,26.19
2023-07-07T08:04:51.974Z,26.06
2023-07-07T08:07:18.692Z,26.24
2023-07-07T08:09:45.439Z,26.82
2023-07-07T08:12:12.196Z,26.94
2023-07-07T08:14:38.881Z,26.35
2023-07-07T08:17:12.272Z,26.95
2023-07-07T08:19:41.595Z,27.31
2023-07-07T08:22:13.203Z,26.73
2023-07-07T08:24:48.141Z,26.56
2023-07-07T08:29:45.738Z,26.39
2023-07-07T08:32:15.475Z,26.62
2023-07-07T08:34:53.914Z,26.72
2023-07-07T08:37:21.586Z,26.57
2023-07-07T08:39:48.623Z,26.08
2023-07-07T08:42:25.290Z,25.69
2023-07-07T08:44:52.820Z,25.33
2023-07-07T08:47:37.766Z,25.79
2023-07-07T08:50:15.722Z,26.38
2023-07-07T08:53:19.276Z,26.48
2023-07-07T08:56:00.049Z,26.33
2023-07-07T08:59:00.626Z,26.39
2023-07-07T09:01:50.511Z,26.34
2023-07-07T09:04:22.904Z,26.30
2023-07-07T09:07:10.706Z,25.82
2023-07-07T09:10:00.495Z,25.94
2023-07-07T09:12:27.293Z,26.27
2023-07-07T09:14:58.365Z,26.80
2023-07-07T09:17:42.696Z,26.89
2023-07-07T09:20:11.326Z,27.17
2023-07-07T09:22:47.669Z,27.06
2023-07-07T09:25:22.402Z,27.30
2023-07-07T09:28:00.394Z,27.17
2023-07-07T09:30:59.816Z,26.77
2023-07-07T09:33:27.840Z,27.02
2023-07-07T09:36:16.326Z,27.54
2023-07-07T09:38:56.118Z,26.92
2023-07-07T09:41:46.933Z,26.96
2023-07-07T09:44:16.636Z,27.39
2023-07-07T09:46:59.280Z,27.49
2023-07-07T09:49:46.487Z,27.46
2023-07-07T09:52:45.289Z,27.36
2023-07-07T09:55:34.406Z,27.63
2023-07-07T09:58:27.461Z,28.08
2023-07-07T10:00:57.569Z,28.08
2023-07-07T10:03:39.441Z,27.79
2023-07-07T10:06:28.336Z,27.38
2023-07-07T10:08:54.999Z,27.12
2023-07-07T10:13:57.719Z,27.29
2023-07-07T10:16:36.152Z,27.43
2023-07-07T10:19:07.357Z,27.60
2023-07-07T10:21:34.424Z,27.96
2023-07-07T10:24:03.511Z,27.77
2023-07-07T10:26:32.523Z,27.63
2023-07-07T10:29:01.541Z,28.17
2023-07-07T10:31:29.139Z,27.83
2023-07-07T10:34:03.428Z,27.95
2023-07-07T10:36:33.727Z,28.09
2023-07-07T10:39:00.937Z,27.74
2023-07-07T10:41:31.097Z,27.96
2023-07-07T10:43:57.800Z,28.13
2023-07-07T10:46:24.529Z,28.57
2023-07-07T10:48:57.023Z,28.74
2023-07-07T10:51:57.716Z,27.52
2023-07-07T10:54:58.464Z,27.64
2023-07-07T10:57:55.937Z,27.76
2023-07-07T11:00:32.984Z,28.01
2023-07-07T11:03:27.346Z,27.90
2023-07-07T11:06:17.900Z,28.08
2023-07-07T11:08:55.236Z,28.06
2023-07-07T11:11:35.430Z,28.11
2023-07-07T11:14:14.256Z,27.89
2023-07-07T11:16:59.322Z,27.85
2023-07-07T11:19:43.491Z,28.27
2023-07-07T11:22:16.013Z,28.09
2023-07-07T11:25:09.840Z,27.95
2023-07-07T11:27:55.721Z,27.78
2023-07-07T11:30:29.399Z,27.58
2023-07-07T11:33:02.017Z,27.51
2023-07-07T11:35:54.853Z,27.93
2023-07-07T11:38:36.735Z,27.69
2023-07-07T11:41:24.310Z,28.04
2023-07-07T11:43:53.931Z,28.16
2023-07-07T11:46:30.132Z,28.07
2023-07-07T11:49:33.881Z,27.95
2023-07-07T11:52:40.479Z,28.01
2023-07-07T11:55:16.989Z,27.97
2023-07-07T11:57:54.946Z,28.51
2023-07-07T12:00:56.408Z,28.59
2023-07-07T12:03:48.308Z,29.18
2023-07-07T12:06:23.047Z,29.14
2023-07-07T12:09:34.005Z,28.11
2023-07-07T12:12:28.358Z,28.18
2023-07-07T12:15:04.293Z,28.85
2023-07-07T12:17:38.353Z,28.96
2023-07-07T12:20:11.423Z,29.42
2023-07-07T12:22:41.770Z,28.84
2023-07-07T12:25:26.767Z,28.72
2023-07-07T12:27:55.260Z,29.11
2023-07-07T12:30:26.433Z,29.73
2023-07-07T12:32:54.049Z,29.28
2023-07-07T12:35:31.628Z,28.48
2023-07-07T12:38:34.772Z,28.09
2023-07-07T12:41:16.150Z,28.35
2023-07-07T12:44:00.972Z,28.24
2023-07-07T12:46:38.649Z,28.59
2023-07-07T12:49:23.454Z,28.11
2023-07-07T12:52:00.009Z,27.91
2023-07-07T12:54:34.791Z,28.46
2023-07-07T12:57:22.788Z,28.63
2023-07-07T12:59:49.543Z,28.44
2023-07-07T13:02:26.851Z,28.46
2023-07-07T13:05:02.068Z,28.67
2023-07-07T13:07:34.201Z,28.99
2023-07-07T13:10:06.365Z,29.27
2023-07-07T13:12:46.009Z,29.09
2023-07-07T13:15:22.656Z,29.26
2023-07-07T13:17:52.681Z,28.99
2023-07-07T13:20:21.473Z,28.58
2023-07-07T13:22:53.290Z,28.46
2023-07-07T13:25:24.873Z,28.88
2023-07-07T13:27:55.270Z,28.95
2023-07-07T13:30:34.621Z,29.18
2023-07-07T13:33:20.929Z,29.28
2023-07-07T13:35:55.788Z,29.31
2023-07-07T13:38:29.507Z,29.18
2023-07-07T13:40:57.353Z,29.85
2023-07-07T13:43:23.939Z,29.53
2023-07-07T13:45:51.201Z,29.60
2023-07-07T13:48:21.707Z,29.33
2023-07-07T13:50:48.552Z,29.51
2023-07-07T13:53:15.386Z,29.08
2023-07-07T13:55:45.447Z,29.30
2023-07-07T13:58:19.119Z,28.99
2023-07-07T14:00:47.804Z,29.27
2023-07-07T14:03:19.057Z,29.32
2023-07-07T14:05:48.898Z,29.35
2023-07-07T14:08:19.393Z,28.64
2023-07-07T14:10:50.996Z,29.01
2023-07-07T14:13:22.137Z,28.83
2023-07-07T14:16:01.174Z,28.57
2023-07-07T14:18:37.029Z,28.62
2023-07-07T14:21:07.381Z,28.78
2023-07-07T14:23:34.746Z,29.05
2023-07-07T14:26:01.765Z,29.03
2023-07-07T14:28:40.418Z,29.81
2023-07-07T14:31:11.196Z,29.77
2023-07-07T14:33:42.929Z,29.28
2023-07-07T14:36:23.202Z,29.46
2023-07-07T14:38:55.360Z,29.75
2023-07-07T14:41:24.540Z,28.89
2023-07-07T14:43:51.318Z,28.72
2023-07-07T14:46:37.850Z,29.43
2023-07-07T14:49:17.509Z,28.83
2023-07-07T14:51:48.419Z,29.38
2023-07-07T14:54:17.743Z,30.43
2023-07-07T14:57:01.895Z,31.70
2023-07-07T14:59:38.098Z,31.56
2023-07-07T15:02:36.584Z,32.10
2023-07-07T15:05:44.202Z,35.33
2023-07-07T15:08:14.147Z,33.84
2023-07-07T15:10:41.708Z,34.79
2023-07-07T15:13:18.091Z,33.65
2023-07-07T15:15:45.095Z,34.41
2023-07-07T15:18:14.948Z,33.65
2023-07-07T15:20:42.745Z,32.70
2023-07-07T15:23:09.999Z,33.89
2023-07-07T15:25:36.716Z,34.43
2023-07-07T15:28:03.604Z,34.14
2023-07-07T15:30:30.299Z,32.98
2023-07-07T15:32:57.045Z,31.84
2023-07-07T15:35:23.776Z,30.83
2023-07-07T15:37:50.954Z,29.18
2023-07-07T15:40:22.811Z,29.18
2023-07-07T15:42:52.212Z,29.80
2023-07-07T15:45:19.446Z,30.24
2023-07-07T15:47:47.502Z,29.53
2023-07-07T15:50:18.085Z,28.96
2023-07-07T15:52:45.996Z,28.97
2023-07-07T15:55:13.281Z,28.40
2023-07-07T15:57:40.055Z,28.66
2023-07-07T16:00:16.876Z,28.48
2023-07-07T16:02:43.671Z,28.37
2023-07-07T16:05:10.528Z,28.47
2023-07-07T16:07:37.254Z,27.99
2023-07-07T16:10:12.582Z,28.03
2023-07-07T16:12:39.896Z,28.26
2023-07-07T16:15:07.460Z,28.17
2023-07-07T16:17:34.219Z,27.68
2023-07-07T16:20:20.995Z,27.76
2023-07-07T16:22:53.465Z,27.88
2023-07-07T16:25:22.122Z,27.65
2023-07-07T16:27:49.187Z,27.72
2023-07-07T16:30:24.288Z,27.64
2023-07-07T16:32:51.091Z,27.40
2023-07-07T16:35:17.934Z,27.24
2023-07-07T16:37:44.915Z,27.56
2023-07-07T16:40:20.586Z,27.34
2023-07-07T16:42:48.006Z,27.31
2023-07-07T16:45:14.818Z,27.28
2023-07-07T16:47:41.522Z,27.16
2023-07-07T16:50:33.756Z,27.05
2023-07-07T16:53:01.508Z,27.02
2023-07-07T16:55:29.060Z,26.87
2023-07-07T16:57:56.996Z,26.90
2023-07-07T17:00:26.138Z,26.79
2023-07-07T17:02:53.787Z,26.66
2023-07-07T17:05:22.789Z,26.68
2023-07-07T17:07:50.153Z,26.63
2023-07-07T17:10:36.957Z,26.78
2023-07-07T17:13:04.290Z,26.68
2023-07-07T17:15:31.960Z,26.72
2023-07-07T17:17:58.757Z,26.75
2023-07-07T17:20:32.862Z,26.69
2023-07-07T17:22:59.578Z,26.51
2023-07-07T17:25:26.280Z,26.66
2023-07-07T17:27:53.043Z,26.87
2023-07-07T17:30:23.845Z,26.65
2023-07-07T17:32:51.610Z,26.50
2023-07-07T17:35:20.285Z,26.37
2023-07-07T17:37:47.695Z,26.51
2023-07-07T17:40:21.723Z,26.31
2023-07-07T17:42:49.121Z,26.14
2023-07-07T17:45:16.328Z,26.18
2023-07-07T17:47:43.644Z,26.27
2023-07-07T17:50:24.372Z,26.16
2023-07-07T17:52:51.169Z,25.83
2023-07-07T17:55:18.747Z,25.83
2023-07-07T17:57:46.254Z,25.75
2023-07-07T18:00:23.808Z,25.65
2023-07-07T18:02:51.356Z,25.46
2023-07-07T18:05:19.425Z,25.40
2023-07-07T18:07:46.358Z,25.16
2023-07-07T18:10:19.979Z,25.02
2023-07-07T18:12:51.230Z,24.86
2023-07-07T18:15:18.335Z,24.76
2023-07-07T18:18:13.871Z,24.70
2023-07-07T18:21:26.833Z,24.51
2023-07-07T18:23:31.073Z,24.42
2023-07-07T18:25:58.325Z,24.37
2023-07-07T18:28:25.258Z,24.15
2023-07-07T18:30:57.080Z,24.24
2023-07-07T18:33:24.587Z,24.09
2023-07-07T18:35:51.702Z,24.00
2023-07-07T18:38:22.688Z,23.86
2023-07-07T18:40:49.438Z,23.94
2023-07-07T18:43:16.106Z,23.94
2023-07-07T18:45:43.258Z,23.74
2023-07-07T18:48:16.798Z,23.76
2023-07-07T18:50:44.394Z,23.66
2023-07-07T18:53:11.330Z,23.59
2023-07-07T18:55:38.154Z,23.46
2023-07-07T18:58:12.631Z,23.34
2023-07-07T19:00:42.321Z,23.10
2023-07-07T19:03:11.800Z,22.88
2023-07-07T19:05:39.028Z,22.64
2023-07-07T19:08:12.997Z,22.60
2023-07-07T19:10:41.542Z,22.71
2023-07-07T19:13:20.958Z,22.74
2023-07-07T19:15:54.878Z,22.57
2023-07-07T19:18:44.229Z,22.47
2023-07-07T19:21:19.015Z,22.43
2023-07-07T19:23:47.556Z,22.24
2023-07-07T19:26:23.674Z,22.12
2023-07-07T19:28:51.366Z,21.96
2023-07-07T19:31:19.552Z,21.80
2023-07-07T19:33:47.035Z,21.73
2023-07-07T19:36:27.526Z,21.43
2023-07-07T19:38:58.556Z,21.58
2023-07-07T19:41:30.068Z,21.21
2023-07-07T19:43:57.033Z,20.93
2023-07-07T19:46:27.320Z,20.70
2023-07-07T19:48:55.373Z,20.57
2023-07-07T19:51:32.574Z,20.56
2023-07-07T19:54:01.381Z,20.55
2023-07-07T19:56:29.664Z,20.51
2023-07-07T19:58:58.822Z,20.32
2023-07-07T20:01:31.487Z,20.05
2023-07-07T20:03:58.717Z,19.96
2023-07-07T20:06:34.270Z,19.82
2023-07-07T20:09:00.973Z,19.92
2023-07-07T20:11:30.329Z,19.80
2023-07-07T20:13:58.176Z,19.69
2023-07-07T20:16:30.004Z,19.96
2023-07-07T20:19:01.077Z,19.79
2023-07-07T20:21:27.993Z,19.92
2023-07-07T20:23:54.702Z,19.79
2023-07-07T20:26:24.565Z,19.80
2023-07-07T20:28:54.124Z,19.66
2023-07-07T20:31:23.309Z,19.47
2023-07-07T20:33:51.835Z,19.46
2023-07-07T20:36:21.337Z,19.63
2023-07-07T20:38:48.754Z,19.57
2023-07-07T20:41:18.309Z,19.53
2023-07-07T20:43:45.809Z,19.44
2023-07-07T20:46:27.479Z,19.36
2023-07-07T20:48:55.019Z,19.10
2023-07-07T20:51:26.774Z,18.99
2023-07-07T20:53:54.580Z,19.07
2023-07-07T20:56:25.853Z,19.03
2023-07-07T20:58:52.699Z,19.10
2023-07-07T21:01:19.660Z,19.04
2023-07-07T21:03:47.956Z,19.08
2023-07-07T21:06:20.660Z,19.03
2023-07-07T21:08:48.294Z,19.06
2023-07-07T21:11:18.794Z,18.94
2023-07-07T21:13:45.907Z,19.11
2023-07-07T21:16:30.890Z,18.93
2023-07-07T21:18:57.685Z,19.00
2023-07-07T21:21:28.217Z,19.01
2023-07-07T21:23:54.874Z,19.03
2023-07-07T21:26:26.981Z,18.96
2023-07-07T21:28:53.699Z,18.93
2023-07-07T21:31:24.267Z,19.12
2023-07-07T21:33:52.050Z,19.12
2023-07-07T21:36:26.041Z,19.25
2023-07-07T21:38:54.003Z,19.34
2023-07-07T21:41:31.592Z,19.37
2023-07-07T21:44:05.775Z,19.39
2023-07-07T21:46:32.708Z,19.34
2023-07-07T21:48:59.407Z,19.29
2023-07-07T21:51:26.128Z,18.82
2023-07-07T21:53:52.785Z,18.55
2023-07-07T21:56:23.746Z,18.40
2023-07-07T21:58:52.042Z,18.57
2023-07-07T22:01:21.280Z,18.71
2023-07-07T22:03:52.959Z,18.84
2023-07-07T22:06:21.071Z,18.88
2023-07-07T22:08:48.046Z,18.92
2023-07-07T22:11:17.744Z,18.93
2023-07-07T22:13:44.953Z,18.92
2023-07-07T22:16:13.700Z,18.90
2023-07-07T22:18:53.529Z,18.86
2023-07-07T22:21:21.905Z,18.88
2023-07-07T22:23:48.546Z,18.88
2023-07-07T22:26:22.593Z,18.88
2023-07-07T22:28:49.731Z,18.82
2023-07-07T22:31:18.436Z,18.80
2023-07-07T22:33:45.378Z,18.80
2023-07-07T22:36:19.167Z,18.74
2023-07-07T22:38:47.099Z,18.75
2023-07-07T22:41:17.424Z,18.72
2023-07-07T22:43:44.182Z,18.66
2023-07-07T22:46:32.007Z,18.62
2023-07-07T22:48:58.833Z,18.61
2023-07-07T22:51:26.236Z,18.62
2023-07-07T22:53:53.300Z,18.56
2023-07-07T22:56:30.350Z,18.60
2023-07-07T22:58:58.029Z,18.57
2023-07-07T23:01:27.344Z,18.55
2023-07-07T23:04:05.900Z,18.54
2023-07-07T23:06:32.929Z,18.56
2023-07-07T23:09:02.142Z,18.51
2023-07-07T23:11:28.951Z,18.54
2023-07-07T23:13:55.695Z,18.48
2023-07-07T23:16:22.479Z,18.43
2023-07-07T23:18:50.878Z,18.37
2023-07-07T23:21:19.119Z,18.14
2023-07-07T23:23:46.429Z,17.66
2023-07-07T23:26:28.644Z,17.50
2023-07-07T23:28:56.485Z,17.24
2023-07-07T23:31:29.029Z,17.26
2023-07-07T23:33:56.696Z,17.05
2023-07-07T23:36:32.368Z,17.00
2023-07-07T23:39:01.495Z,17.12
2023-07-07T23:41:29.061Z,17.19
2023-07-07T23:43:56.493Z,16.92
2023-07-07T23:46:23.803Z,16.90
2023-07-07T23:48:50.667Z,16.61
2023-07-07T23:51:17.457Z,16.51
2023-07-07T23:53:46.542Z,16.20
2023-07-07T23:56:24.722Z,16.15
2023-07-07T23:58:51.506Z,16.10
